createdAt,value
2022-11-07T00:00:40.357Z,989.15
2022-11-07T00:01:40.438Z,989.09
2022-11-07T00:02:40.450Z,989.12
2022-11-07T00:03:40.350Z,989.15
2022-11-07T00:04:40.348Z,989.05
2022-11-07T00:05:40.359Z,989.15
2022-11-07T00:06:40.358Z,989.10
2022-11-07T00:07:40.373Z,989.17
2022-11-07T00:08:40.375Z,989.13
2022-11-07T00:09:40.369Z,989.18
2022-11-07T00:10:40.376Z,989.15
2022-11-07T00:11:40.360Z,989.14
2022-11-07T00:12:40.378Z,989.20
2022-11-07T00:13:40.361Z,989.31
2022-11-07T00:14:40.377Z,989.31
2022-11-07T00:15:40.377Z,989.28
2022-11-07T00:16:40.364Z,989.28
2022-11-07T00:17:40.403Z,989.26
2022-11-07T00:18:40.394Z,989.30
2022-11-07T00:19:40.362Z,989.30
2022-11-07T00:20:40.372Z,989.31
2022-11-07T00:21:40.368Z,989.36
2022-11-07T00:22:40.378Z,989.32
2022-11-07T00:23:40.372Z,989.29
2022-11-07T00:24:40.385Z,989.28
2022-11-07T00:25:40.388Z,989.38
2022-11-07T00:26:40.373Z,989.31
2022-11-07T00:27:40.441Z,989.35
2022-11-07T00:28:40.409Z,989.30
2022-11-07T00:29:40.377Z,989.32
2022-11-07T00:30:40.398Z,989.34
2022-11-07T00:31:40.397Z,989.36
2022-11-07T00:32:40.380Z,989.32
2022-11-07T00:33:40.416Z,989.32
2022-11-07T00:34:40.413Z,989.29
2022-11-07T00:35:40.397Z,989.35
2022-11-07T00:36:40.406Z,989.27
2022-11-07T00:37:40.397Z,989.29
2022-11-07T00:38:40.425Z,989.16
2022-11-07T00:39:40.408Z,989.17
2022-11-07T00:40:40.406Z,989.23
2022-11-07T00:41:40.387Z,989.22
2022-11-07T00:42:40.393Z,989.28
2022-11-07T00:43:40.420Z,989.18
2022-11-07T00:44:40.406Z,989.26
2022-11-07T00:45:40.407Z,989.33
2022-11-07T00:46:40.406Z,989.29
2022-11-07T00:47:40.441Z,989.33
2022-11-07T00:48:40.437Z,989.31
2022-11-07T00:49:40.448Z,989.32
2022-11-07T00:50:40.435Z,989.27
2022-11-07T00:51:40.464Z,989.30
2022-11-07T00:52:40.475Z,989.29
2022-11-07T00:53:40.565Z,989.34
2022-11-07T00:54:40.506Z,989.29
2022-11-07T00:55:40.514Z,989.29
2022-11-07T00:56:40.496Z,989.29
2022-11-07T00:57:40.556Z,989.40
2022-11-07T00:58:40.544Z,989.29
2022-11-07T00:59:40.566Z,989.31
2022-11-07T01:00:40.587Z,989.30
2022-11-07T01:01:40.680Z,989.37
2022-11-07T01:02:40.788Z,989.37
2022-11-07T01:03:40.615Z,989.38
2022-11-07T01:04:40.626Z,989.37
2022-11-07T01:05:40.637Z,989.40
2022-11-07T01:06:40.653Z,989.45
2022-11-07T01:07:40.660Z,989.50
2022-11-07T01:08:40.654Z,989.53
2022-11-07T01:09:40.697Z,989.54
2022-11-07T01:10:40.679Z,989.47
2022-11-07T01:11:40.698Z,989.53
2022-11-07T01:13:02.499Z,989.47
2022-11-07T01:14:02.504Z,989.54
2022-11-07T01:15:02.508Z,989.60
2022-11-07T01:16:02.506Z,989.56
2022-11-07T01:17:02.515Z,989.60
2022-11-07T01:18:02.539Z,989.66
2022-11-07T01:19:02.520Z,989.73
2022-11-07T01:20:02.540Z,989.71
2022-11-07T01:21:02.522Z,989.65
2022-11-07T01:22:02.509Z,989.77
2022-11-07T01:23:02.521Z,989.76
2022-11-07T01:24:02.521Z,989.69
2022-11-07T01:25:02.518Z,989.78
2022-11-07T01:26:02.537Z,989.75
2022-11-07T01:27:02.574Z,989.75
2022-11-07T01:28:02.538Z,989.70
2022-11-07T01:29:02.552Z,989.70
2022-11-07T01:30:02.552Z,989.66
2022-11-07T01:31:02.530Z,989.65
2022-11-07T01:32:02.575Z,989.63
2022-11-07T01:33:02.557Z,989.70
2022-11-07T01:34:02.566Z,989.72
2022-11-07T01:35:02.559Z,989.62
2022-11-07T01:36:06.020Z,989.59
2022-11-07T01:37:02.580Z,989.57
2022-11-07T01:38:02.555Z,989.51
2022-11-07T01:39:02.583Z,989.49
2022-11-07T01:40:02.569Z,989.49
2022-11-07T01:41:02.570Z,989.41
2022-11-07T01:42:02.568Z,989.38
2022-11-07T01:43:02.581Z,989.45
2022-11-07T01:44:02.570Z,989.42
2022-11-07T01:45:02.558Z,989.42
2022-11-07T01:46:02.585Z,989.44
2022-11-07T01:47:02.593Z,989.46
2022-11-07T01:48:02.740Z,989.48
2022-11-07T01:49:02.723Z,989.49
2022-11-07T01:50:02.718Z,989.49
2022-11-07T01:51:02.747Z,989.48
2022-11-07T01:52:02.755Z,989.53
2022-11-07T01:53:02.793Z,989.46
2022-11-07T01:54:02.811Z,989.44
2022-11-07T01:55:02.806Z,989.53
2022-11-07T01:56:02.804Z,989.55
2022-11-07T01:57:02.819Z,989.56
2022-11-07T01:58:02.824Z,989.54
2022-11-07T01:59:02.849Z,989.58
2022-11-07T02:00:02.853Z,989.59
2022-11-07T02:01:02.859Z,989.61
2022-11-07T02:02:02.948Z,989.60
2022-11-07T02:03:02.947Z,989.50
2022-11-07T02:04:02.926Z,989.50
2022-11-07T02:05:02.916Z,989.50
2022-11-07T02:06:02.926Z,989.54
2022-11-07T02:07:02.931Z,989.58
2022-11-07T02:08:02.953Z,989.57
2022-11-07T02:09:02.982Z,989.67
2022-11-07T02:10:03.001Z,989.70
2022-11-07T02:11:02.987Z,989.75
2022-11-07T02:12:02.996Z,989.81
2022-11-07T02:13:02.994Z,989.76
2022-11-07T02:14:03.037Z,989.81
2022-11-07T02:15:03.036Z,989.73
2022-11-07T02:16:03.037Z,989.70
2022-11-07T02:17:03.066Z,989.70
2022-11-07T02:18:03.078Z,989.64
2022-11-07T02:19:03.097Z,989.65
2022-11-07T02:20:03.108Z,989.63
2022-11-07T02:21:03.101Z,989.54
2022-11-07T02:22:03.120Z,989.56
2022-11-07T02:23:03.130Z,989.50
2022-11-07T02:24:03.135Z,989.46
2022-11-07T02:25:03.194Z,989.59
2022-11-07T02:26:03.167Z,989.55
2022-11-07T02:27:03.183Z,989.55
2022-11-07T02:28:03.190Z,989.51
2022-11-07T02:29:03.196Z,989.50
2022-11-07T02:30:03.222Z,989.50
2022-11-07T02:31:03.234Z,989.45
2022-11-07T02:32:03.229Z,989.53
2022-11-07T02:33:03.262Z,989.41
2022-11-07T02:34:03.282Z,989.41
2022-11-07T02:35:03.277Z,989.45
2022-11-07T02:36:03.297Z,989.46
2022-11-07T02:37:03.320Z,989.56
2022-11-07T02:38:03.304Z,989.44
2022-11-07T02:39:03.308Z,989.52
2022-11-07T02:40:03.331Z,989.56
2022-11-07T02:41:03.370Z,989.62
2022-11-07T02:42:03.356Z,989.56
2022-11-07T02:43:03.361Z,989.62
2022-11-07T02:44:03.365Z,989.50
2022-11-07T02:45:03.385Z,989.49
2022-11-07T02:46:03.411Z,989.51
2022-11-07T02:47:03.433Z,989.58
2022-11-07T02:48:03.416Z,989.53
2022-11-07T02:49:03.423Z,989.56
2022-11-07T02:50:03.447Z,989.53
2022-11-07T02:51:03.485Z,989.55
2022-11-07T02:52:03.479Z,989.47
2022-11-07T02:53:03.498Z,989.51
2022-11-07T02:54:03.501Z,989.47
2022-11-07T02:55:03.540Z,989.50
2022-11-07T02:56:03.546Z,989.56
2022-11-07T02:57:03.551Z,989.51
2022-11-07T02:58:03.513Z,989.52
2022-11-07T02:59:03.537Z,989.59
2022-11-07T03:00:03.581Z,989.59
2022-11-07T03:01:03.618Z,989.50
2022-11-07T03:02:03.669Z,989.48
2022-11-07T03:03:03.647Z,989.55
2022-11-07T03:04:03.621Z,989.53
2022-11-07T03:05:03.644Z,989.50
2022-11-07T03:06:03.666Z,989.48
2022-11-07T03:07:03.667Z,989.49
2022-11-07T03:08:03.666Z,989.52
2022-11-07T03:09:03.680Z,989.47
2022-11-07T03:10:03.684Z,989.50
2022-11-07T03:11:03.706Z,989.57
2022-11-07T03:12:03.728Z,989.52
2022-11-07T03:13:03.754Z,989.53
2022-11-07T03:14:03.762Z,989.48
2022-11-07T03:15:03.836Z,989.56
2022-11-07T03:16:03.761Z,989.53
2022-11-07T03:17:03.803Z,989.61
2022-11-07T03:18:03.781Z,989.56
2022-11-07T03:19:03.800Z,989.65
2022-11-07T03:20:03.830Z,989.56
2022-11-07T03:21:03.823Z,989.63
2022-11-07T03:22:03.851Z,989.67
2022-11-07T03:23:03.846Z,989.61
2022-11-07T03:24:03.883Z,989.70
2022-11-07T03:25:03.893Z,989.72
2022-11-07T03:26:03.904Z,989.69
2022-11-07T03:27:03.903Z,989.75
2022-11-07T03:28:03.924Z,989.67
2022-11-07T03:29:03.937Z,989.65
2022-11-07T03:30:03.957Z,989.72
2022-11-07T03:31:03.974Z,989.69
2022-11-07T03:32:03.976Z,989.76
2022-11-07T03:33:03.982Z,989.80
2022-11-07T03:34:03.991Z,989.77
2022-11-07T03:35:04.017Z,989.72
2022-11-07T03:36:04.018Z,989.64
2022-11-07T03:37:04.046Z,989.66
2022-11-07T03:38:04.047Z,989.67
2022-11-07T03:39:04.049Z,989.56
2022-11-07T03:40:04.046Z,989.67
2022-11-07T03:41:04.066Z,989.57
2022-11-07T03:42:04.093Z,989.49
2022-11-07T03:43:04.119Z,989.61
2022-11-07T03:44:04.121Z,989.58
2022-11-07T03:45:04.110Z,989.59
2022-11-07T03:46:04.136Z,989.63
2022-11-07T03:47:04.145Z,989.67
2022-11-07T03:48:04.174Z,989.61
2022-11-07T03:49:04.161Z,989.59
2022-11-07T03:50:04.182Z,989.63
2022-11-07T03:51:04.212Z,989.65
2022-11-07T03:52:04.201Z,989.73
2022-11-07T03:53:04.232Z,989.66
2022-11-07T03:54:04.241Z,989.58
2022-11-07T03:55:04.253Z,989.64
2022-11-07T03:56:04.251Z,989.54
2022-11-07T03:57:04.267Z,989.58
2022-11-07T03:58:04.298Z,989.52
2022-11-07T03:59:04.300Z,989.54
2022-11-07T04:00:04.288Z,989.51
2022-11-07T04:01:04.312Z,989.53
2022-11-07T04:02:04.406Z,989.50
2022-11-07T04:03:04.404Z,989.56
2022-11-07T04:04:04.354Z,989.63
2022-11-07T04:05:04.397Z,989.52
2022-11-07T04:06:04.380Z,989.60
2022-11-07T04:07:04.407Z,989.66
2022-11-07T04:08:04.427Z,989.62
2022-11-07T04:09:04.434Z,989.66
2022-11-07T04:10:04.408Z,989.63
2022-11-07T04:11:04.458Z,989.63
2022-11-07T04:12:04.442Z,989.65
2022-11-07T04:13:04.477Z,989.66
2022-11-07T04:14:04.494Z,989.62
2022-11-07T04:15:04.486Z,989.65
2022-11-07T04:16:04.505Z,989.69
2022-11-07T04:17:04.512Z,989.70
2022-11-07T04:18:04.532Z,989.64
2022-11-07T04:19:04.557Z,989.67
2022-11-07T04:20:04.532Z,989.73
2022-11-07T04:21:04.570Z,989.69
2022-11-07T04:22:04.584Z,989.73
2022-11-07T04:23:04.591Z,989.60
2022-11-07T04:24:04.589Z,989.67
2022-11-07T04:25:04.611Z,989.75
2022-11-07T04:26:04.615Z,989.70
2022-11-07T04:27:04.646Z,989.67
2022-11-07T04:28:04.667Z,989.67
2022-11-07T04:29:04.666Z,989.65
2022-11-07T04:30:04.673Z,989.59
2022-11-07T04:31:04.697Z,989.67
2022-11-07T04:32:04.699Z,989.61
2022-11-07T04:33:04.728Z,989.64
2022-11-07T04:34:04.725Z,989.63
2022-11-07T04:35:04.732Z,989.49
2022-11-07T04:36:04.751Z,989.55
2022-11-07T04:37:04.750Z,989.62
2022-11-07T04:38:04.790Z,989.53
2022-11-07T04:39:04.817Z,989.60
2022-11-07T04:40:04.775Z,989.53
2022-11-07T04:41:04.809Z,989.56
2022-11-07T04:42:04.802Z,989.46
2022-11-07T04:43:04.831Z,989.56
2022-11-07T04:44:04.866Z,989.54
2022-11-07T04:45:04.849Z,989.64
2022-11-07T04:46:04.868Z,989.53
2022-11-07T04:47:04.872Z,989.63
2022-11-07T04:48:04.964Z,989.60
2022-11-07T04:49:04.901Z,989.59
2022-11-07T04:50:04.908Z,989.60
2022-11-07T04:51:04.922Z,989.59
2022-11-07T04:52:04.952Z,989.68
2022-11-07T04:53:04.978Z,989.69
2022-11-07T04:54:04.996Z,989.69
2022-11-07T04:55:04.972Z,989.68
2022-11-07T04:56:04.992Z,989.68
2022-11-07T04:57:04.992Z,989.65
2022-11-07T04:58:05.014Z,989.56
2022-11-07T04:59:05.033Z,989.64
2022-11-07T05:00:05.059Z,989.67
2022-11-07T05:01:05.089Z,989.64
2022-11-07T05:02:05.132Z,989.66
2022-11-07T05:03:05.138Z,989.71
2022-11-07T05:04:05.068Z,989.64
2022-11-07T05:05:05.100Z,989.67
2022-11-07T05:06:05.156Z,989.67
2022-11-07T05:07:05.124Z,989.77
2022-11-07T05:08:05.126Z,989.75
2022-11-07T05:09:05.138Z,989.76
2022-11-07T05:10:08.366Z,989.70
2022-11-07T05:11:05.148Z,989.75
2022-11-07T05:12:05.157Z,989.72
2022-11-07T05:13:05.158Z,989.74
2022-11-07T05:14:05.149Z,989.77
2022-11-07T05:15:05.219Z,989.83
2022-11-07T05:16:05.178Z,989.86
2022-11-07T05:17:05.194Z,989.85
2022-11-07T05:18:05.179Z,989.80
2022-11-07T05:19:05.172Z,989.86
2022-11-07T05:20:05.176Z,989.82
2022-11-07T05:21:05.180Z,989.81
2022-11-07T05:22:05.167Z,989.80
2022-11-07T05:23:05.176Z,989.84
2022-11-07T05:24:05.167Z,989.87
2022-11-07T05:25:05.191Z,989.89
2022-11-07T05:26:05.172Z,989.82
2022-11-07T05:27:05.186Z,989.80
2022-11-07T05:28:05.154Z,989.83
2022-11-07T05:29:05.175Z,989.77
2022-11-07T05:30:05.170Z,989.85
2022-11-07T05:31:05.202Z,989.82
2022-11-07T05:32:05.174Z,989.85
2022-11-07T05:33:05.198Z,989.89
2022-11-07T05:34:05.181Z,989.87
2022-11-07T05:35:05.183Z,989.93
2022-11-07T05:36:05.196Z,989.91
2022-11-07T05:37:05.198Z,989.92
2022-11-07T05:38:05.191Z,989.94
2022-11-07T05:39:05.175Z,989.89
2022-11-07T05:40:05.187Z,989.83
2022-11-07T05:41:05.222Z,989.93
2022-11-07T05:42:05.211Z,989.96
2022-11-07T05:43:05.188Z,989.89
2022-11-07T05:44:05.211Z,989.91
2022-11-07T05:45:05.190Z,989.90
2022-11-07T05:46:05.220Z,989.91
2022-11-07T05:47:05.190Z,989.89
2022-11-07T05:48:05.219Z,989.94
2022-11-07T05:49:05.190Z,989.93
2022-11-07T05:50:05.228Z,989.89
2022-11-07T05:51:05.207Z,989.87
2022-11-07T05:52:05.253Z,989.95
2022-11-07T05:53:05.347Z,989.97
2022-11-07T05:54:05.204Z,989.93
2022-11-07T05:55:05.196Z,989.92
2022-11-07T05:56:05.225Z,989.98
2022-11-07T05:57:05.231Z,990.01
2022-11-07T05:58:07.072Z,990.01
2022-11-07T05:59:05.205Z,989.96
2022-11-07T06:00:05.206Z,990.03
2022-11-07T06:01:05.258Z,989.93
2022-11-07T06:02:05.364Z,989.98
2022-11-07T06:03:05.323Z,989.96
2022-11-07T06:04:05.222Z,989.90
2022-11-07T06:05:05.211Z,989.91
2022-11-07T06:06:05.242Z,990.04
2022-11-07T06:07:05.239Z,990.00
2022-11-07T06:08:05.217Z,990.00
2022-11-07T06:09:05.217Z,990.05
2022-11-07T06:10:05.214Z,990.00
2022-11-07T06:11:05.225Z,990.13
2022-11-07T06:12:05.234Z,990.04
2022-11-07T06:13:05.224Z,990.01
2022-11-07T06:14:05.221Z,990.06
2022-11-07T06:15:05.206Z,990.06
2022-11-07T06:16:05.212Z,990.09
2022-11-07T06:17:05.242Z,990.12
2022-11-07T06:18:05.238Z,989.98
2022-11-07T06:19:05.256Z,990.06
2022-11-07T06:20:05.239Z,990.05
2022-11-07T06:21:05.226Z,990.02
2022-11-07T06:22:05.252Z,989.99
2022-11-07T06:23:05.275Z,990.05
2022-11-07T06:24:05.249Z,990.09
2022-11-07T06:25:05.235Z,990.09
2022-11-07T06:26:05.250Z,990.05
2022-11-07T06:27:05.245Z,990.12
2022-11-07T06:28:05.272Z,990.22
2022-11-07T06:29:05.252Z,990.18
2022-11-07T06:30:05.248Z,990.18
2022-11-07T06:31:05.252Z,990.17
2022-11-07T06:32:05.234Z,990.30
2022-11-07T06:33:05.255Z,990.18
2022-11-07T06:34:05.322Z,990.19
2022-11-07T06:35:05.241Z,990.15
2022-11-07T06:36:05.254Z,990.16
2022-11-07T06:37:05.243Z,990.16
2022-11-07T06:38:05.260Z,990.17
2022-11-07T06:39:05.259Z,990.20
2022-11-07T06:40:05.256Z,990.22
2022-11-07T06:41:05.274Z,990.27
2022-11-07T06:42:05.260Z,990.24
2022-11-07T06:43:05.278Z,990.27
2022-11-07T06:44:05.272Z,990.36
2022-11-07T06:45:05.283Z,990.38
2022-11-07T06:46:05.266Z,990.37
2022-11-07T06:47:05.264Z,990.31
2022-11-07T06:48:05.264Z,990.35
2022-11-07T06:49:05.277Z,990.35
2022-11-07T06:50:05.284Z,990.43
2022-11-07T06:51:05.268Z,990.40
2022-11-07T06:52:05.282Z,990.43
2022-11-07T06:53:05.264Z,990.48
2022-11-07T06:54:05.284Z,990.48
2022-11-07T06:55:05.271Z,990.52
2022-11-07T06:56:05.292Z,990.54
2022-11-07T06:57:05.330Z,990.55
2022-11-07T06:58:05.281Z,990.50
2022-11-07T06:59:05.294Z,990.47
2022-11-07T07:00:05.322Z,990.45
2022-11-07T07:01:05.508Z,990.55
2022-11-07T07:02:05.354Z,990.47
2022-11-07T07:03:05.470Z,990.46
2022-11-07T07:04:05.339Z,990.41
2022-11-07T07:05:05.370Z,990.38
2022-11-07T07:06:05.477Z,990.47
2022-11-07T07:07:05.373Z,990.43
2022-11-07T07:08:05.379Z,990.44
2022-11-07T07:09:05.404Z,990.42
2022-11-07T07:10:05.440Z,990.51
2022-11-07T07:11:05.463Z,990.48
2022-11-07T07:12:05.477Z,990.42
2022-11-07T07:13:26.419Z,990.48
2022-11-07T07:14:26.446Z,990.47
2022-11-07T07:15:26.456Z,990.52
2022-11-07T07:16:26.472Z,990.53
2022-11-07T07:17:26.488Z,990.55
2022-11-07T07:18:26.432Z,990.53
2022-11-07T07:19:26.456Z,990.49
2022-11-07T07:20:26.484Z,990.52
2022-11-07T07:21:26.440Z,990.61
2022-11-07T07:22:26.442Z,990.47
2022-11-07T07:23:26.474Z,990.56
2022-11-07T07:24:26.476Z,990.58
2022-11-07T07:25:26.803Z,990.58
2022-11-07T07:26:26.493Z,990.60
2022-11-07T07:27:26.474Z,990.57
2022-11-07T07:28:26.474Z,990.57
2022-11-07T07:29:26.470Z,990.52
2022-11-07T07:30:26.492Z,990.62
2022-11-07T07:31:26.473Z,990.56
2022-11-07T07:32:26.484Z,990.56
2022-11-07T07:33:26.477Z,990.55
2022-11-07T07:34:26.495Z,990.58
2022-11-07T07:35:26.494Z,990.55
2022-11-07T07:36:26.480Z,990.61
2022-11-07T07:37:26.515Z,990.63
2022-11-07T07:38:26.479Z,990.60
2022-11-07T07:39:26.490Z,990.59
2022-11-07T07:40:26.497Z,990.65
2022-11-07T07:41:26.483Z,990.60
2022-11-07T07:42:26.478Z,990.62
2022-11-07T07:43:26.504Z,990.63
2022-11-07T07:44:26.485Z,990.66
2022-11-07T07:45:26.525Z,990.63
2022-11-07T07:46:26.520Z,990.58
2022-11-07T07:47:26.626Z,990.61
2022-11-07T07:48:26.629Z,990.63
2022-11-07T07:49:26.652Z,990.56
2022-11-07T07:50:26.675Z,990.65
2022-11-07T07:51:26.686Z,990.68
2022-11-07T07:52:26.684Z,990.73
2022-11-07T07:53:26.695Z,990.66
2022-11-07T07:54:26.725Z,990.69
2022-11-07T07:55:26.728Z,990.69
2022-11-07T07:56:26.766Z,990.70
2022-11-07T07:57:26.758Z,990.74
2022-11-07T07:58:26.759Z,990.72
2022-11-07T07:59:26.787Z,990.73
2022-11-07T08:00:26.777Z,990.80
2022-11-07T08:01:26.894Z,990.67
2022-11-07T08:02:26.873Z,990.78
2022-11-07T08:03:29.304Z,990.79
2022-11-07T08:04:26.824Z,990.78
2022-11-07T08:05:26.825Z,990.82
2022-11-07T08:06:26.831Z,990.82
2022-11-07T08:07:26.841Z,990.84
2022-11-07T08:08:26.828Z,990.86
2022-11-07T08:09:26.818Z,990.87
2022-11-07T08:10:41.393Z,990.84
2022-11-07T08:11:26.826Z,990.83
2022-11-07T08:12:26.858Z,990.81
2022-11-07T08:13:26.835Z,990.93
2022-11-07T08:14:26.830Z,990.79
2022-11-07T08:15:26.825Z,990.92
2022-11-07T08:16:26.835Z,990.85
2022-11-07T08:17:26.861Z,990.90
2022-11-07T08:18:26.834Z,990.90
2022-11-07T08:19:26.856Z,990.86
2022-11-07T08:20:26.835Z,990.89
2022-11-07T08:21:26.849Z,990.83
2022-11-07T08:22:26.856Z,990.90
2022-11-07T08:23:26.874Z,990.89
2022-11-07T08:24:26.836Z,990.89
2022-11-07T08:25:26.849Z,990.97
2022-11-07T08:26:26.849Z,990.91
2022-11-07T08:27:26.854Z,990.97
2022-11-07T08:28:26.867Z,990.89
2022-11-07T08:29:26.858Z,990.93
2022-11-07T08:30:26.888Z,990.95
2022-11-07T08:31:26.881Z,991.00
2022-11-07T08:32:26.909Z,990.97
2022-11-07T08:33:26.979Z,990.89
2022-11-07T08:34:26.925Z,990.97
2022-11-07T08:35:26.925Z,990.93
2022-11-07T08:36:26.941Z,990.96
2022-11-07T08:37:26.971Z,991.01
2022-11-07T08:38:26.966Z,990.96
2022-11-07T08:39:26.986Z,991.01
2022-11-07T08:40:26.999Z,991.03
2022-11-07T08:41:27.007Z,991.04
2022-11-07T08:42:27.030Z,991.00
2022-11-07T08:43:27.033Z,990.97
2022-11-07T08:44:27.047Z,991.01
2022-11-07T08:45:27.054Z,991.01
2022-11-07T08:46:27.065Z,990.98
2022-11-07T08:47:27.090Z,991.05
2022-11-07T08:48:27.088Z,990.97
2022-11-07T08:49:27.113Z,990.96
2022-11-07T08:50:27.107Z,991.05
2022-11-07T08:51:27.138Z,990.97
2022-11-07T08:52:27.168Z,990.98
2022-11-07T08:53:27.174Z,990.91
2022-11-07T08:54:27.173Z,990.89
2022-11-07T08:55:27.182Z,990.91
2022-11-07T08:56:27.170Z,990.97
2022-11-07T08:57:27.201Z,990.96
2022-11-07T08:58:30.015Z,990.98
2022-11-07T08:59:27.206Z,991.00
2022-11-07T09:00:27.220Z,991.01
2022-11-07T09:01:27.310Z,991.00
2022-11-07T09:02:57.702Z,991.00
2022-11-07T09:03:50.273Z,990.97
2022-11-07T09:04:27.256Z,990.92
2022-11-07T09:05:27.244Z,990.95
2022-11-07T09:06:27.223Z,991.02
2022-11-07T09:07:27.212Z,990.90
2022-11-07T09:08:27.240Z,990.98
2022-11-07T09:09:27.243Z,991.03
2022-11-07T09:10:27.240Z,991.12
2022-11-07T09:11:27.227Z,991.00
2022-11-07T09:12:27.233Z,991.04
2022-11-07T09:13:27.246Z,991.09
2022-11-07T09:14:27.219Z,991.08
2022-11-07T09:15:27.232Z,991.12
2022-11-07T09:16:27.231Z,991.11
2022-11-07T09:17:27.235Z,991.12
2022-11-07T09:18:27.248Z,991.11
2022-11-07T09:19:27.236Z,991.08
2022-11-07T09:20:27.227Z,991.16
2022-11-07T09:21:27.242Z,991.06
2022-11-07T09:22:27.252Z,991.08
2022-11-07T09:23:27.247Z,991.12
2022-11-07T09:24:27.275Z,991.09
2022-11-07T09:25:27.238Z,991.11
2022-11-07T09:26:27.232Z,991.08
2022-11-07T09:27:27.242Z,991.12
2022-11-07T09:28:27.245Z,991.16
2022-11-07T09:29:27.396Z,991.19
2022-11-07T09:30:27.274Z,991.14
2022-11-07T09:31:27.251Z,991.16
2022-11-07T09:32:43.745Z,991.15
2022-11-07T09:33:27.252Z,991.18
2022-11-07T09:34:27.425Z,991.18
2022-11-07T09:35:27.250Z,991.21
2022-11-07T09:36:27.243Z,991.17
2022-11-07T09:37:27.264Z,991.22
2022-11-07T09:38:27.257Z,991.23
2022-11-07T09:39:27.479Z,991.16
2022-11-07T09:40:27.279Z,991.16
2022-11-07T09:41:27.259Z,991.21
2022-11-07T09:42:27.276Z,991.20
2022-11-07T09:43:27.248Z,991.26
2022-11-07T09:44:31.617Z,991.18
2022-11-07T09:45:27.277Z,991.18
2022-11-07T09:46:27.265Z,991.20
2022-11-07T09:47:27.240Z,991.28
2022-11-07T09:48:27.269Z,991.24
2022-11-07T09:49:27.258Z,991.19
2022-11-07T09:50:27.282Z,991.25
2022-11-07T09:51:27.287Z,991.22
2022-11-07T09:52:27.277Z,991.31
2022-11-07T09:53:27.284Z,991.23
2022-11-07T09:54:27.272Z,991.32
2022-11-07T09:55:27.278Z,991.30
2022-11-07T09:56:27.305Z,991.26
2022-11-07T09:57:27.297Z,991.27
2022-11-07T09:58:27.312Z,991.35
2022-11-07T09:59:27.276Z,991.23
2022-11-07T10:00:27.298Z,991.25
2022-11-07T10:01:27.406Z,991.30
2022-11-07T10:02:27.356Z,991.31
2022-11-07T10:03:27.300Z,991.36
2022-11-07T10:04:27.556Z,991.32
2022-11-07T10:05:27.291Z,991.34
2022-11-07T10:06:27.291Z,991.29
2022-11-07T10:07:27.304Z,991.24
2022-11-07T10:08:27.286Z,991.43
2022-11-07T10:09:27.296Z,991.36
2022-11-07T10:10:27.303Z,991.24
2022-11-07T10:11:27.292Z,991.36
2022-11-07T10:12:27.322Z,991.40
2022-11-07T10:13:27.290Z,991.39
2022-11-07T10:14:27.294Z,991.36
2022-11-07T10:15:27.284Z,991.26
2022-11-07T10:16:27.295Z,991.42
2022-11-07T10:17:27.278Z,991.39
2022-11-07T10:18:27.317Z,991.39
2022-11-07T10:19:27.302Z,991.42
2022-11-07T10:20:27.298Z,991.37
2022-11-07T10:21:37.593Z,991.43
2022-11-07T10:22:27.302Z,991.48
2022-11-07T10:23:27.317Z,991.44
2022-11-07T10:24:27.293Z,991.49
2022-11-07T10:25:27.312Z,991.45
2022-11-07T10:26:27.306Z,991.51
2022-11-07T10:27:27.320Z,991.52
2022-11-07T10:28:27.323Z,991.60
2022-11-07T10:29:27.335Z,991.54
2022-11-07T10:30:27.316Z,991.61
2022-11-07T10:31:27.309Z,991.59
2022-11-07T10:32:27.313Z,991.61
2022-11-07T10:33:27.318Z,991.60
2022-11-07T10:34:27.332Z,991.56
2022-11-07T10:35:27.317Z,991.64
2022-11-07T10:36:27.350Z,991.58
2022-11-07T10:37:27.315Z,991.61
2022-11-07T10:38:27.317Z,991.64
2022-11-07T10:39:27.328Z,991.56
2022-11-07T10:40:27.340Z,991.55
2022-11-07T10:41:27.317Z,991.54
2022-11-07T10:42:27.320Z,991.54
2022-11-07T10:43:27.333Z,991.59
2022-11-07T10:44:27.352Z,991.50
2022-11-07T10:45:27.322Z,991.53
2022-11-07T10:46:27.330Z,991.49
2022-11-07T10:47:27.324Z,991.53
2022-11-07T10:48:27.331Z,991.51
2022-11-07T10:49:27.360Z,991.44
2022-11-07T10:50:27.330Z,991.50
2022-11-07T10:51:27.335Z,991.53
2022-11-07T10:52:27.365Z,991.40
2022-11-07T10:53:27.333Z,991.43
2022-11-07T10:54:27.378Z,991.46
2022-11-07T10:55:27.383Z,991.45
2022-11-07T10:56:27.325Z,991.52
2022-11-07T10:57:27.340Z,991.49
2022-11-07T10:58:27.337Z,991.54
2022-11-07T10:59:32.938Z,991.47
2022-11-07T11:00:27.351Z,991.55
2022-11-07T11:01:27.443Z,991.58
2022-11-07T11:02:27.412Z,991.50
2022-11-07T11:03:41.887Z,991.54
2022-11-07T11:04:27.343Z,991.56
2022-11-07T11:05:27.367Z,991.57
2022-11-07T11:06:27.318Z,991.56
2022-11-07T11:07:28.647Z,991.58
2022-11-07T11:08:27.355Z,991.53
2022-11-07T11:09:27.356Z,991.49
2022-11-07T11:10:27.380Z,991.49
2022-11-07T11:11:27.369Z,991.48
2022-11-07T11:12:27.354Z,991.45
2022-11-07T11:13:27.368Z,991.45
2022-11-07T11:14:27.369Z,991.52
2022-11-07T11:15:32.724Z,991.51
2022-11-07T11:16:27.385Z,991.47
2022-11-07T11:17:27.387Z,991.42
2022-11-07T11:18:27.363Z,991.46
2022-11-07T11:19:27.367Z,991.39
2022-11-07T11:20:27.374Z,991.28
2022-11-07T11:21:27.366Z,991.29
2022-11-07T11:22:27.381Z,991.40
2022-11-07T11:23:27.369Z,991.33
2022-11-07T11:24:27.377Z,991.35
2022-11-07T11:25:27.393Z,991.31
2022-11-07T11:26:27.375Z,991.33
2022-11-07T11:27:27.365Z,991.36
2022-11-07T11:28:27.375Z,991.38
2022-11-07T11:29:27.370Z,991.34
2022-11-07T11:30:27.365Z,991.28
2022-11-07T11:31:27.386Z,991.31
2022-11-07T11:32:27.378Z,991.26
2022-11-07T11:33:27.372Z,991.36
2022-11-07T11:34:27.379Z,991.34
2022-11-07T11:35:27.371Z,991.29
2022-11-07T11:36:27.363Z,991.29
2022-11-07T11:37:27.430Z,991.33
2022-11-07T11:38:27.384Z,991.21
2022-11-07T11:39:27.402Z,991.28
2022-11-07T11:40:27.423Z,991.18
2022-11-07T11:41:27.397Z,991.34
2022-11-07T11:42:27.393Z,991.27
2022-11-07T11:43:27.399Z,991.26
2022-11-07T11:44:27.405Z,991.20
2022-11-07T11:45:27.392Z,991.23
2022-11-07T11:46:27.397Z,991.12
2022-11-07T11:47:31.646Z,991.17
2022-11-07T11:48:27.403Z,991.16
2022-11-07T11:49:27.396Z,991.13
2022-11-07T11:50:27.403Z,991.17
2022-11-07T11:51:27.420Z,991.19
2022-11-07T11:52:27.402Z,991.10
2022-11-07T11:53:27.404Z,991.14
2022-11-07T11:54:27.401Z,991.08
2022-11-07T11:55:27.405Z,991.06
2022-11-07T11:56:27.423Z,991.10
2022-11-07T11:57:27.422Z,991.04
2022-11-07T11:58:27.427Z,990.98
2022-11-07T11:59:27.408Z,991.06
2022-11-07T12:00:27.416Z,991.04
2022-11-07T12:01:27.444Z,991.02
2022-11-07T12:02:27.488Z,991.04
2022-11-07T12:03:27.416Z,991.06
2022-11-07T12:04:27.434Z,991.05
2022-11-07T12:05:27.409Z,991.02
2022-11-07T12:06:27.427Z,991.06
2022-11-07T12:07:27.428Z,990.99
2022-11-07T12:08:27.414Z,990.99
2022-11-07T12:09:27.419Z,991.00
2022-11-07T12:10:27.423Z,990.99
2022-11-07T12:11:27.426Z,990.94
2022-11-07T12:12:27.425Z,991.02
2022-11-07T12:13:27.430Z,990.99
2022-11-07T12:14:27.415Z,990.99
2022-11-07T12:15:27.431Z,990.97
2022-11-07T12:16:27.457Z,991.03
2022-11-07T12:17:27.427Z,991.03
2022-11-07T12:18:27.417Z,991.01
2022-11-07T12:19:27.424Z,991.01
2022-11-07T12:20:27.416Z,991.02
2022-11-07T12:21:27.417Z,991.12
2022-11-07T12:22:27.453Z,991.08
2022-11-07T12:23:27.444Z,991.12
2022-11-07T12:24:27.435Z,991.03
2022-11-07T12:25:27.437Z,991.05
2022-11-07T12:26:27.442Z,991.03
2022-11-07T12:27:27.505Z,991.02
2022-11-07T12:28:27.452Z,991.05
2022-11-07T12:29:27.462Z,991.01